createdAt,value
2018-04-08T00:01:25.801Z,59.60
2018-04-08T00:03:53.343Z,59.70
2018-04-08T00:06:20.890Z,59.40
2018-04-08T00:08:48.405Z,59.50
2018-04-08T00:11:15.933Z,59.30
2018-04-08T00:13:43.445Z,59.40
2018-04-08T00:16:10.973Z,59.40
2018-04-08T00:18:38.504Z,59.80
2018-04-08T00:21:06.037Z,60.20
2018-04-08T00:23:33.565Z,60.30
2018-04-08T00:26:01.105Z,60.40
2018-04-08T00:28:28.637Z,60.10
2018-04-08T00:30:56.183Z,60.60
2018-04-08T00:33:23.700Z,61.20
2018-04-08T00:35:51.307Z,61.20
2018-04-08T00:38:18.840Z,61.60
2018-04-08T00:40:47.200Z,61.40
2018-04-08T00:43:14.739Z,61.80
2018-04-08T00:45:42.285Z,62.10
2018-04-08T00:48:09.810Z,61.80
2018-04-08T00:50:37.358Z,62.60
2018-04-08T00:53:04.870Z,62.90
2018-04-08T00:55:32.411Z,62.60
2018-04-08T00:57:59.926Z,62.50
2018-04-08T01:00:27.479Z,62.70
2018-04-08T01:02:55.002Z,62.90
2018-04-08T01:05:22.533Z,63.50
2018-04-08T01:07:50.054Z,63.20
2018-04-08T01:10:17.585Z,63.60
2018-04-08T01:12:45.110Z,63.30
2018-04-08T01:15:13.417Z,63.80
2018-04-08T01:17:40.940Z,63.80
2018-04-08T01:20:08.462Z,63.00
2018-04-08T01:22:36.006Z,62.60
2018-04-08T01:25:03.556Z,62.60
2018-04-08T01:27:31.101Z,62.40
2018-04-08T01:29:58.630Z,61.90
2018-04-08T01:32:26.161Z,61.80
2018-04-08T01:34:53.681Z,62.00
2018-04-08T01:37:21.236Z,62.20
2018-04-08T01:39:48.745Z,61.40
2018-04-08T01:42:16.281Z,61.50
2018-04-08T01:44:43.801Z,61.20
2018-04-08T01:47:11.335Z,61.00
2018-04-08T01:49:38.903Z,60.70
2018-04-08T01:52:06.440Z,60.70
2018-04-08T01:54:34.743Z,60.80
2018-04-08T01:57:02.277Z,60.70
2018-04-08T01:59:30.564Z,61.20
2018-04-08T02:01:58.867Z,61.20
2018-04-08T02:04:26.391Z,61.00
2018-04-08T02:06:53.934Z,60.30
2018-04-08T02:09:21.445Z,60.60
2018-04-08T02:11:48.988Z,61.20
2018-04-08T02:14:17.457Z,60.60
2018-04-08T02:16:45.002Z,60.00
2018-04-08T02:19:13.289Z,60.00
2018-04-08T02:21:40.825Z,60.70
2018-04-08T02:24:09.126Z,60.10
2018-04-08T02:26:36.657Z,60.00
2018-04-08T02:29:04.950Z,60.60
2018-04-08T02:31:32.487Z,60.60
2018-04-08T02:34:00.798Z,60.70
2018-04-08T02:36:28.334Z,60.70
2018-04-08T02:38:56.652Z,60.80
2018-04-08T02:41:24.173Z,60.80
2018-04-08T02:43:52.475Z,62.00
2018-04-08T02:46:20.017Z,62.00
2018-04-08T02:48:47.567Z,61.70
2018-04-08T02:51:15.086Z,61.30
2018-04-08T02:53:43.411Z,61.70
2018-04-08T02:56:10.947Z,61.70
2018-04-08T02:58:38.485Z,62.10
2018-04-08T03:01:05.997Z,62.20
2018-04-08T03:03:33.544Z,61.90
2018-04-08T03:06:01.061Z,62.20
2018-04-08T03:08:28.601Z,61.90
2018-04-08T03:10:56.132Z,62.00
2018-04-08T03:13:23.673Z,61.80
2018-04-08T03:15:51.218Z,61.50
2018-04-08T03:18:18.766Z,61.60
2018-04-08T03:20:47.057Z,62.30
2018-04-08T03:23:14.596Z,62.30
2018-04-08T03:25:42.868Z,63.70
2018-04-08T03:28:10.405Z,63.70
2018-04-08T03:30:37.979Z,63.80
2018-04-08T03:33:05.516Z,64.40
2018-04-08T03:35:33.029Z,64.80
2018-04-08T03:38:00.565Z,64.80
2018-04-08T03:40:28.853Z,64.80
2018-04-08T03:42:56.395Z,64.80
2018-04-08T03:45:24.678Z,64.40
2018-04-08T03:47:52.981Z,64.80
2018-04-08T03:50:20.533Z,64.80
2018-04-08T03:52:48.063Z,65.10
2018-04-08T03:55:16.356Z,64.70
2018-04-08T03:57:43.896Z,64.70
2018-04-08T04:00:11.462Z,64.90
2018-04-08T04:02:38.989Z,65.20
2018-04-08T04:05:06.538Z,65.30
2018-04-08T04:07:34.053Z,65.40
2018-04-08T04:10:01.595Z,65.50
2018-04-08T04:12:29.132Z,65.60
2018-04-08T04:14:57.445Z,65.50
2018-04-08T04:17:24.966Z,65.30
2018-04-08T04:20:04.225Z,65.90
2018-04-08T04:22:43.607Z,66.00
2018-04-08T04:25:25.657Z,66.10
2018-04-08T04:27:53.199Z,66.40
2018-04-08T04:30:21.529Z,66.40
2018-04-08T04:32:49.077Z,66.40
2018-04-08T04:35:16.625Z,66.40
2018-04-08T04:37:44.163Z,66.80
2018-04-08T04:40:11.697Z,66.70
2018-04-08T04:42:39.270Z,67.10
2018-04-08T04:45:07.568Z,67.30
2018-04-08T04:47:35.100Z,67.20
2018-04-08T04:50:03.400Z,67.50
2018-04-08T04:52:30.909Z,67.40
2018-04-08T04:54:58.438Z,67.00
2018-04-08T04:57:25.951Z,66.60
2018-04-08T04:59:53.468Z,66.60
2018-04-08T05:02:21.005Z,66.00
2018-04-08T05:04:48.521Z,65.50
2018-04-08T05:07:16.856Z,63.80
2018-04-08T05:09:44.379Z,63.80
2018-04-08T05:12:11.931Z,63.30
2018-04-08T05:14:40.225Z,63.00
2018-04-08T05:17:07.761Z,63.00
2018-04-08T05:19:35.288Z,62.70
2018-04-08T05:22:02.856Z,62.50
2018-04-08T05:24:31.148Z,62.30
2018-04-08T05:26:58.719Z,62.20
2018-04-08T05:29:26.263Z,62.70
2018-04-08T05:31:54.062Z,61.70
2018-04-08T05:34:21.854Z,61.60
2018-04-08T05:36:49.417Z,61.50
2018-04-08T05:39:16.936Z,60.90
2018-04-08T05:41:44.484Z,61.60
2018-04-08T05:44:12.012Z,60.50
2018-04-08T05:46:39.584Z,59.90
2018-04-08T05:49:07.122Z,59.70
2018-04-08T05:51:35.426Z,59.20
2018-04-08T05:54:02.954Z,59.20
2018-04-08T05:56:30.493Z,58.80
2018-04-08T05:58:58.007Z,58.30
2018-04-08T06:01:25.542Z,58.20
2018-04-08T06:03:53.126Z,58.20
2018-04-08T06:06:20.639Z,57.80
2018-04-08T06:08:48.175Z,56.90
2018-04-08T06:11:15.705Z,56.90
2018-04-08T06:13:44.102Z,56.70
2018-04-08T06:16:11.622Z,55.60
2018-04-08T06:18:39.160Z,55.80
2018-04-08T06:21:06.709Z,55.90
2018-04-08T06:23:35.030Z,55.30
2018-04-08T06:26:02.592Z,55.30
2018-04-08T06:28:30.122Z,54.90
2018-04-08T06:30:57.684Z,54.10
2018-04-08T06:33:25.262Z,54.20
2018-04-08T06:35:52.806Z,54.40
2018-04-08T06:38:20.356Z,54.00
2018-04-08T06:40:47.892Z,53.70
2018-04-08T06:43:15.452Z,52.90
2018-04-08T06:45:42.987Z,52.00
2018-04-08T06:48:10.525Z,51.90
2018-04-08T06:50:38.065Z,50.20
2018-04-08T06:53:05.623Z,49.40
2018-04-08T06:55:33.145Z,49.20
2018-04-08T06:58:00.732Z,48.10
2018-04-08T07:00:28.257Z,46.50
2018-04-08T07:02:55.806Z,45.10
2018-04-08T07:05:24.130Z,39.60
2018-04-08T07:07:51.676Z,39.60
2018-04-08T07:10:19.197Z,39.40
2018-04-08T07:12:47.510Z,38.50
2018-04-08T07:15:15.029Z,38.50
2018-04-08T07:17:44.058Z,32.90
2018-04-08T07:20:11.599Z,32.90
2018-04-08T07:22:39.195Z,29.80
2018-04-08T07:25:06.721Z,27.90
2018-04-08T07:27:34.237Z,25.80
2018-04-08T07:30:01.818Z,26.70
2018-04-08T07:32:30.114Z,25.00
2018-04-08T07:34:57.674Z,25.00
2018-04-08T07:37:25.222Z,24.30
2018-04-08T07:39:52.768Z,23.90
2018-04-08T07:42:21.062Z,25.00
2018-04-08T07:44:48.617Z,25.00
2018-04-08T07:47:16.133Z,24.30
2018-04-08T07:49:44.130Z,23.60
2018-04-08T07:52:11.664Z,24.30
2018-04-08T07:54:39.199Z,24.80
2018-04-08T07:57:06.721Z,24.90
2018-04-08T07:59:34.289Z,23.50
2018-04-08T08:02:01.837Z,23.70
2018-04-08T08:04:29.377Z,24.10
2018-04-08T08:06:57.664Z,22.90
2018-04-08T08:09:25.192Z,22.90
2018-04-08T08:11:53.524Z,21.90
2018-04-08T08:14:21.063Z,21.90
2018-04-08T08:16:48.577Z,22.50
2018-04-08T08:19:16.108Z,22.50
2018-04-08T08:21:43.638Z,21.70
2018-04-08T08:24:11.177Z,21.80
2018-04-08T08:26:39.512Z,20.80
2018-04-08T08:29:07.062Z,20.70
2018-04-08T08:31:34.582Z,21.10
2018-04-08T08:34:02.136Z,21.40
2018-04-08T08:36:29.658Z,22.50
2018-04-08T08:38:57.206Z,22.30
2018-04-08T08:41:24.720Z,22.30
2018-04-08T08:43:52.279Z,22.00
2018-04-08T08:46:19.818Z,22.00
2018-04-08T08:48:47.336Z,22.20
2018-04-08T08:51:14.873Z,21.70
2018-04-08T08:53:42.417Z,21.70
2018-04-08T08:56:09.958Z,21.40
2018-04-08T08:58:37.476Z,22.50
2018-04-08T09:01:05.586Z,22.20
2018-04-08T09:03:33.121Z,22.40
2018-04-08T09:06:00.674Z,22.20
2018-04-08T09:08:29.108Z,22.90
2018-04-08T09:10:56.658Z,22.90
2018-04-08T09:13:24.185Z,23.10
2018-04-08T09:15:51.718Z,22.50
2018-04-08T09:18:20.013Z,22.80
2018-04-08T09:20:49.333Z,22.80
2018-04-08T09:23:34.560Z,23.80
2018-04-08T09:26:16.026Z,23.60
2018-04-08T09:28:43.592Z,23.40
2018-04-08T09:31:11.131Z,23.60
2018-04-08T09:33:38.693Z,23.90
2018-04-08T09:36:06.226Z,24.30
2018-04-08T09:38:33.754Z,24.10
2018-04-08T09:41:02.060Z,24.50
2018-04-08T09:43:29.603Z,24.50
2018-04-08T09:45:57.149Z,24.80
2018-04-08T09:48:25.439Z,25.20
2018-04-08T09:50:53.545Z,25.20
2018-04-08T09:53:21.079Z,25.00
2018-04-08T09:55:49.425Z,26.10
2018-04-08T09:58:18.273Z,25.70
2018-04-08T10:03:51.737Z,26.50
2018-04-08T10:06:19.284Z,27.90
2018-04-08T10:08:47.570Z,31.60
2018-04-08T10:11:15.112Z,31.60
2018-04-08T10:13:43.551Z,31.00
2018-04-08T10:16:11.091Z,32.20
2018-04-08T10:18:38.612Z,32.30
2018-04-08T10:21:06.914Z,32.80
2018-04-08T10:23:34.437Z,32.70
2018-04-08T10:26:01.975Z,33.20
2018-04-08T10:28:29.498Z,34.00
2018-04-08T10:30:57.030Z,34.30
2018-04-08T10:33:24.577Z,34.40
2018-04-08T10:35:52.886Z,33.90
2018-04-08T10:38:20.414Z,33.80
2018-04-08T10:40:48.716Z,33.00
2018-04-08T10:43:16.228Z,32.90
2018-04-08T10:45:43.764Z,32.90
2018-04-08T10:48:11.294Z,33.40
2018-04-08T10:50:38.832Z,33.50
2018-04-08T10:53:06.365Z,33.00
2018-04-08T10:55:33.920Z,33.60
2018-04-08T10:58:02.228Z,33.10
2018-04-08T11:00:29.761Z,33.10
2018-04-08T11:02:57.289Z,33.70
2018-04-08T11:05:24.841Z,32.30
2018-04-08T11:07:52.360Z,33.80
2018-04-08T11:10:19.925Z,33.20
2018-04-08T11:12:47.456Z,34.40
2018-04-08T11:15:15.014Z,33.60
2018-04-08T11:17:43.308Z,33.20
2018-04-08T11:20:11.581Z,32.40
2018-04-08T11:22:39.121Z,32.40
2018-04-08T11:25:06.639Z,31.50
2018-04-08T11:27:34.181Z,31.70
2018-04-08T11:30:02.422Z,33.00
2018-04-08T11:32:29.953Z,33.00
2018-04-08T11:34:57.465Z,33.00
2018-04-08T11:37:25.005Z,32.00
2018-04-08T11:39:52.544Z,32.60
2018-04-08T11:42:20.082Z,33.20
2018-04-08T11:44:47.604Z,33.00
2018-04-08T11:47:15.183Z,32.30
2018-04-08T11:49:42.688Z,34.40
2018-04-08T11:52:10.227Z,33.10
2018-04-08T11:54:38.535Z,31.40
2018-04-08T11:57:06.125Z,31.30
2018-04-08T11:59:33.650Z,32.40
2018-04-08T12:02:01.216Z,32.20
2018-04-08T12:04:28.729Z,33.90
2018-04-08T12:06:57.046Z,32.90
2018-04-08T12:09:24.567Z,32.90
2018-04-08T12:11:52.874Z,33.50
2018-04-08T12:14:20.493Z,33.50
2018-04-08T12:16:48.047Z,32.80
2018-04-08T12:19:15.573Z,32.60
2018-04-08T12:21:43.132Z,32.10
2018-04-08T12:24:10.644Z,31.80
2018-04-08T12:26:38.757Z,33.70
2018-04-08T12:29:06.321Z,33.10
2018-04-08T12:31:33.861Z,33.20
2018-04-08T12:34:01.382Z,32.40
2018-04-08T12:36:28.940Z,31.40
2018-04-08T12:38:56.481Z,32.10
2018-04-08T12:41:24.010Z,32.80
2018-04-08T12:43:51.807Z,33.50
2018-04-08T12:46:19.329Z,31.60
2018-04-08T12:48:46.889Z,32.50
2018-04-08T12:51:14.404Z,32.00
2018-04-08T12:53:41.947Z,31.50
2018-04-08T12:56:09.484Z,32.30
2018-04-08T12:58:37.021Z,33.00
2018-04-08T13:01:04.542Z,31.50
2018-04-08T13:03:32.096Z,32.30
2018-04-08T13:05:59.612Z,32.50
2018-04-08T13:08:27.171Z,32.60
2018-04-08T13:10:54.706Z,33.30
2018-04-08T13:13:22.250Z,32.90
2018-04-08T13:15:49.770Z,32.70
2018-04-08T13:18:17.336Z,33.60
2018-04-08T13:20:45.908Z,33.30
2018-04-08T13:23:13.477Z,33.20
2018-04-08T13:25:41.036Z,31.90
2018-04-08T13:28:08.586Z,33.20
2018-04-08T13:30:36.109Z,33.40
2018-04-08T13:33:03.664Z,32.60
2018-04-08T13:35:31.207Z,33.00
2018-04-08T13:37:58.842Z,32.70
2018-04-08T13:40:27.381Z,33.50
2018-04-08T13:42:54.908Z,32.70
2018-04-08T13:45:22.424Z,32.40
2018-04-08T13:47:49.984Z,32.30
2018-04-08T13:50:17.522Z,34.00
2018-04-08T13:52:45.834Z,32.90
2018-04-08T13:55:13.369Z,32.90
2018-04-08T13:57:40.909Z,32.70
2018-04-08T14:00:09.201Z,33.60
2018-04-08T14:02:36.712Z,33.50
2018-04-08T14:05:04.243Z,33.70
2018-04-08T14:07:31.769Z,34.20
2018-04-08T14:09:59.328Z,33.00
2018-04-08T14:12:26.878Z,34.20
2018-04-08T14:14:55.197Z,34.30
2018-04-08T14:17:22.720Z,34.20
2018-04-08T14:19:51.059Z,33.60
2018-04-08T14:22:18.595Z,33.60
2018-04-08T14:24:46.133Z,33.50
2018-04-08T14:27:13.671Z,33.70
2018-04-08T14:29:41.219Z,32.50
2018-04-08T14:32:09.824Z,33.80
2018-04-08T14:34:37.372Z,33.70
2018-04-08T14:37:05.680Z,34.90
2018-04-08T14:39:33.240Z,34.90
2018-04-08T14:42:00.840Z,34.10
2018-04-08T14:44:28.393Z,34.40
2018-04-08T14:46:55.933Z,33.60
2018-04-08T14:49:23.519Z,33.90
2018-04-08T14:51:51.048Z,33.90
2018-04-08T14:54:18.600Z,34.90
2018-04-08T14:56:46.584Z,35.70
2018-04-08T14:59:14.144Z,34.50
2018-04-08T15:01:46.663Z,34.10
2018-04-08T15:04:09.250Z,35.20
2018-04-08T15:06:36.789Z,36.10
2018-04-08T15:09:04.338Z,35.60
2018-04-08T15:11:31.875Z,35.50
2018-04-08T15:13:59.414Z,36.10
2018-04-08T15:16:26.937Z,34.90
2018-04-08T15:18:54.493Z,34.70
2018-04-08T15:21:22.029Z,35.10
2018-04-08T15:23:49.560Z,35.60
2018-04-08T15:26:17.869Z,35.50
2018-04-08T15:28:45.404Z,35.50
2018-04-08T15:31:12.960Z,35.90
2018-04-08T15:33:40.483Z,36.30
2018-04-08T15:36:08.034Z,36.70
2018-04-08T15:38:35.548Z,36.50
2018-04-08T15:41:03.087Z,36.50
2018-04-08T15:43:31.386Z,37.50
2018-04-08T15:45:59.000Z,37.40
2018-04-08T15:48:26.528Z,37.50
2018-04-08T15:50:54.072Z,38.00
2018-04-08T15:53:21.600Z,37.70
2018-04-08T15:55:49.154Z,37.50
2018-04-08T15:58:17.460Z,38.50
2018-04-08T16:00:45.018Z,38.50
2018-04-08T16:03:12.548Z,38.30
2018-04-08T16:05:40.885Z,38.30
2018-04-08T16:08:08.410Z,38.20
2018-04-08T16:10:35.957Z,39.40
2018-04-08T16:13:03.489Z,40.00
2018-04-08T16:15:31.661Z,39.90
2018-04-08T16:17:59.949Z,39.90
2018-04-08T16:20:27.484Z,39.80
2018-04-08T16:22:55.032Z,40.10
2018-04-08T16:25:22.568Z,40.00
2018-04-08T16:27:50.178Z,40.60
2018-04-08T16:30:17.686Z,40.50
2018-04-08T16:32:45.229Z,41.00
2018-04-08T16:35:12.865Z,40.90
2018-04-08T16:37:40.389Z,40.90
2018-04-08T16:40:07.905Z,41.50
2018-04-08T16:42:35.461Z,41.10
2018-04-08T16:45:03.752Z,41.30
2018-04-08T16:47:31.302Z,41.30
2018-04-08T16:49:58.834Z,41.40
2018-04-08T16:52:26.461Z,42.10
2018-04-08T16:54:54.857Z,42.80
2018-04-08T16:57:22.542Z,42.90
2018-04-08T16:59:50.078Z,42.70
2018-04-08T17:02:17.660Z,42.70
2018-04-08T17:04:45.216Z,43.00
2018-04-08T17:07:12.838Z,42.70
2018-04-08T17:09:41.147Z,43.80
2018-04-08T17:12:08.689Z,43.70
2018-04-08T17:14:36.977Z,44.20
2018-04-08T17:17:04.511Z,44.20
2018-04-08T17:19:32.804Z,45.20
2018-04-08T17:22:00.362Z,45.20
2018-04-08T17:24:27.907Z,45.60
2018-04-08T17:26:55.499Z,46.10
2018-04-08T17:29:23.089Z,46.20
2018-04-08T17:31:50.749Z,46.50
2018-04-08T17:34:18.285Z,46.90
2018-04-08T17:36:45.842Z,47.40
2018-04-08T17:39:13.373Z,47.70
2018-04-08T17:41:40.909Z,48.60
2018-04-08T17:44:09.210Z,50.00
2018-04-08T17:46:36.761Z,50.00
2018-04-08T17:49:04.295Z,49.50
2018-04-08T17:51:31.829Z,49.80
2018-04-08T17:53:59.383Z,50.20
2018-04-08T17:56:26.912Z,50.10
2018-04-08T17:58:54.460Z,50.10
2018-04-08T18:01:22.008Z,50.80
2018-04-08T18:03:49.541Z,51.30
2018-04-08T18:06:17.071Z,52.00
2018-04-08T18:08:44.699Z,52.70
2018-04-08T18:11:12.234Z,51.70
2018-04-08T18:13:40.581Z,52.70
2018-04-08T18:16:08.111Z,52.70
2018-04-08T18:18:35.642Z,53.40
2018-04-08T18:21:03.161Z,53.30
2018-04-08T18:23:30.709Z,53.80
2018-04-08T18:25:58.245Z,55.20
2018-04-08T18:28:25.810Z,54.20
2018-04-08T18:30:53.352Z,53.70
2018-04-08T18:33:20.905Z,53.20
2018-04-08T18:35:48.450Z,54.40
2018-04-08T18:38:16.007Z,55.00
2018-04-08T18:40:43.547Z,55.90
2018-04-08T18:43:11.102Z,55.90
2018-04-08T18:45:38.624Z,56.50
2018-04-08T18:48:06.935Z,57.90
2018-04-08T18:50:34.479Z,57.70
2018-04-08T18:53:02.012Z,57.80
2018-04-08T18:55:29.568Z,57.10
2018-04-08T18:57:57.146Z,56.60
2018-04-08T19:00:24.695Z,55.80
2018-04-08T19:02:52.274Z,56.00
2018-04-08T19:05:19.805Z,57.10
2018-04-08T19:07:47.347Z,58.40
2018-04-08T19:10:14.894Z,60.20
2018-04-08T19:12:42.419Z,60.40
2018-04-08T19:15:15.674Z,61.20
2018-04-08T19:17:48.967Z,63.60
2018-04-08T19:20:16.507Z,63.30
2018-04-08T19:22:44.052Z,61.70
2018-04-08T19:25:11.606Z,62.70
2018-04-08T19:27:39.134Z,62.90
2018-04-08T19:30:13.211Z,64.70
2018-04-08T19:32:40.741Z,64.70
2018-04-08T19:35:08.277Z,63.00
2018-04-08T19:37:35.806Z,63.70
2018-04-08T19:40:03.353Z,64.50
2018-04-08T19:42:30.873Z,63.90
2018-04-08T19:44:58.425Z,63.50
2018-04-08T19:47:25.957Z,63.20
2018-04-08T19:49:53.492Z,62.30
2018-04-08T19:52:21.009Z,62.90
2018-04-08T19:54:48.564Z,62.90
2018-04-08T19:57:16.102Z,64.10
2018-04-08T19:59:43.640Z,66.00
2018-04-08T20:02:11.925Z,66.40
2018-04-08T20:04:39.465Z,66.40
2018-04-08T20:07:07.754Z,65.30
2018-04-08T20:09:35.300Z,65.10
2018-04-08T20:12:03.589Z,66.10
2018-04-08T20:14:31.125Z,66.00
2018-04-08T20:16:59.413Z,68.00
2018-04-08T20:19:26.965Z,68.00
2018-04-08T20:21:55.249Z,70.20
2018-04-08T20:24:22.805Z,70.20
2018-04-08T20:26:51.097Z,70.60
2018-04-08T20:29:18.639Z,70.60
2018-04-08T20:31:46.182Z,71.80
2018-04-08T20:34:14.477Z,72.00
2018-04-08T20:36:42.037Z,72.00
2018-04-08T20:39:10.019Z,72.60
2018-04-08T20:41:37.557Z,73.80
2018-04-08T20:44:05.086Z,72.90
2018-04-08T20:46:32.658Z,72.20
2018-04-08T20:49:00.993Z,71.90
2018-04-08T20:51:28.517Z,71.80
2018-04-08T20:53:56.037Z,71.80
2018-04-08T20:56:23.566Z,71.10
2018-04-08T20:58:51.085Z,70.90
2018-04-08T21:01:18.617Z,71.60
2018-04-08T21:03:46.183Z,72.40
2018-04-08T21:06:13.694Z,73.80
2018-04-08T21:08:41.219Z,73.40
2018-04-08T21:11:08.757Z,73.50
2018-04-08T21:13:37.045Z,71.70
2018-04-08T21:16:04.586Z,71.60
2018-04-08T21:18:32.877Z,73.20
2018-04-08T21:21:01.203Z,73.10
2018-04-08T21:23:29.642Z,73.50
2018-04-08T21:25:57.180Z,71.60
2018-04-08T21:28:25.472Z,72.10
2018-04-08T21:30:53.014Z,71.90
2018-04-08T21:33:21.300Z,73.90
2018-04-08T21:35:48.859Z,73.90
2018-04-08T21:38:16.383Z,74.20
2018-04-08T21:40:43.900Z,72.50
2018-04-08T21:43:11.432Z,72.20
2018-04-08T21:45:38.958Z,72.80
2018-04-08T21:48:06.494Z,73.80
2018-04-08T21:50:34.010Z,74.70
2018-04-08T21:53:01.546Z,75.90
2018-04-08T21:55:29.060Z,76.30
2018-04-08T21:57:56.599Z,76.10
2018-04-08T22:00:24.109Z,76.10
2018-04-08T22:02:51.651Z,76.10
2018-04-08T22:05:19.176Z,76.50
2018-04-08T22:07:46.717Z,77.40
2018-04-08T22:10:14.271Z,77.10
2018-04-08T22:12:41.814Z,77.00
2018-04-08T22:15:09.329Z,77.50
2018-04-08T22:17:36.867Z,77.60
2018-04-08T22:20:04.395Z,78.10
2018-04-08T22:22:31.927Z,78.20
2018-04-08T22:24:59.447Z,78.10
2018-04-08T22:27:26.981Z,78.60
2018-04-08T22:29:54.495Z,78.50
2018-04-08T22:32:22.037Z,77.40
2018-04-08T22:34:49.579Z,77.40
2018-04-08T22:37:17.137Z,77.50
2018-04-08T22:39:44.659Z,77.80
2018-04-08T22:42:12.188Z,78.40
2018-04-08T22:44:40.470Z,79.10
2018-04-08T22:47:08.001Z,79.10
2018-04-08T22:49:35.516Z,78.80
2018-04-08T22:52:03.808Z,80.20
2018-04-08T22:54:31.340Z,80.10
2018-04-08T22:56:58.862Z,80.70
2018-04-08T22:59:26.396Z,80.60
2018-04-08T23:01:53.926Z,81.10
2018-04-08T23:04:21.484Z,81.40
2018-04-08T23:06:49.782Z,82.40
2018-04-08T23:09:17.327Z,82.40
2018-04-08T23:11:44.896Z,82.90
2018-04-08T23:14:12.432Z,82.70
2018-04-08T23:16:39.976Z,82.40
2018-04-08T23:19:07.524Z,82.70
2018-04-08T23:21:35.059Z,82.90
2018-04-08T23:24:02.626Z,82.60
2018-04-08T23:26:30.144Z,82.30
2018-04-08T23:28:57.694Z,83.40
2018-04-08T23:31:25.227Z,83.00
2018-04-08T23:33:52.757Z,82.70
2018-04-08T23:36:20.291Z,82.20
2018-04-08T23:38:47.831Z,82.50
2018-04-08T23:41:15.345Z,82.40
2018-04-08T23:43:42.888Z,82.40
2018-04-08T23:46:11.181Z,81.80
2018-04-08T23:48:38.726Z,81.80
2018-04-08T23:51:07.016Z,80.80
2018-04-08T23:53:34.567Z,80.70
2018-04-08T23:56:02.125Z,81.10
2018-04-08T23:58:29.667Z,82.00
